Alex, Oklahoma
Current Conditions -  °F | °C
As of 1:35 AM on Sunday 23 Nov 2014 (Local Time) from KCHK Reporting Station
Overcast Overcast  
Wind Chill: 12°   Ceiling: 400
Heat Index: 12°   Visibility: 7mi
Dew Point: 12°   Wind: 8mph
Humidity: 100%   Direction: 190°S
Pressure: 29.6"   Gusts: NA
Location:  34.91°N, 97.78°W
Report Text: KCHK 230735Z AUTO 19007KT 7SM OVC004 12/12 A2960 RMK AO2
Loading
Personal Weather Stations






























Interactive Weather Map New forecast layout! Learn more

10-Day Weather Forecast

Advertisements
Track Severe Weather on mobile